Aeroporto :
LOGIN :

Iscrizione | Disclaimer

   EN    FR    IT 

 










Sommario :    VFR   VFR Marginale   IFR   IFR Intensivo   IFR Molto Intensivo
Visibilità : 
Base nubi : 
>= 8 km
>= 3000ft
5 / 8 km
1000 / 3000 ft
1500m / 5 km
500 / 1000 ft
800 / 1500m
200 / 500 ft
< 800m
< 200 ft
Simboli :   Temporali  Nebbia  Neve Forte  Precipitazioni Forti  Vento > 20 kt
SIGMETs :   Varie  Temporali  Ghiacco  Turbolenza  Onda orograficha  Ceneri Vulcaniche






- Altitudine del aeroporto : 768 ft
- Codice IATA : MXP


LIMC - Milano Malpensa

ULTIMO METAR :
  • 141050Z 22004KT 150V270 9999 SCT035 BKN057 21/12 Q1017 NOSIG

METARs OBSOLETI :
  • 141020Z VRB03KT 9999 BKN057 21/11 Q1017 NOSIG
  • 140950Z VRB02KT 9999 FEW035 BKN060 21/10 Q1017 NOSIG
  • 140920Z 08003KT 360V140 9999 SCT050 20/11 Q1017 NOSIG
  • 140850Z VRB02KT 9999 SCT035 SCT051 20/12 Q1017 NOSIG
  • 140820Z 06003KT 010V130 9999 FEW015 SCT055 BKN080 19/12 Q1017 NOSIG
  • 140750Z 14004KT 100V180 9999 SCT057 SCT080 19/13 Q1017 NOSIG
  • 140720Z 11004KT 080V160 CAVOK 19/13 Q1017 NOSIG
  • 140650Z 15004KT 110V190 9999 BKN080 18/13 Q1017 NOSIG
  • 140620Z 10004KT 9999 BKN040 17/12 Q1016 NOSIG

TAF TAF LIMC
Valido dal 14 a 06 ore il 15 a 12 ore UTC


140500Z 1406/1512 VRB05KT CAVOK



MetMap, La meteo Aeronautica in un colpo d'occhio ! - Copyright ORBIFLY Dicembre 2007 - Disclaimer

ORBIFLY MET'MAP TEAM :

Programmazione e sviluppo : Alexandra Zaïnal
Concezione : Baudouin d'Aumeries
Supporto tecnico e logistico : Manuel Goepfert
Aiuto : Marc-Olivier Méhu
Aiuto per la traduzione : Arnaldo La Scala




FONTI E CREDITI :

   NOAA